Ellsworth Air Force Base
KRCA : now visible

Aeroporto :











RITROVATECI SU...

 
LOGIN :

Iscrizione | Disclaimer

   EN    FR    IT 

 









Sommario :    VFR   VFR Marginale   IFR   IFR Intensivo   IFR Molto Intensivo
Visibilità : 
Base nubi : 
>= 8 km
>= 3000ft
5 / 8 km
1000 / 3000 ft
1500m / 5 km
500 / 1000 ft
800 / 1500m
200 / 500 ft
< 800m
< 200 ft
Simboli :   Temporali  Nebbia  Neve Forte  Precipitazioni Forti  Vento > 20 kt







- Altitudine del aeroporto : 3276 ft


KRCA - Ellsworth Air Force Base

ULTIMO METAR :
  • 201556Z 02014KT 10SM CLR 25/12 A3014 RMK AO2A SLP184 T02510133 $

METARs OBSOLETI :
  • 201456Z 01010KT 10SM CLR 24/17 A3011 RMK AO2A SLP174 T02430167 52023 $
  • 201356Z 00000KT 10SM BKN170 23/14 A3008 RMK AO2A SLP162 T02270139 $

TAF TAF KRCA
Valido dal 20 a 11 ore il 21 a 17 ore UTC


201100Z 2011/2117 VRB06KT 9999 FEW150 QNH3002INS
BECMG 2105/2106 33009KT 8000 -SHRA BKN080 QNH3010INS
BECMG 2112/2113 VRB06KT 9999 NSW SCT100 QNH3013INS TX28/2021Z TN17/2111Z
Nessun NOTAM noto per questo aeroporto.



MetMap, La meteo Aeronautica in un colpo d'occhio ! - Copyright ORBIFLY Dicembre 2007 - Disclaimer

ORBIFLY MET'MAP TEAM :

Programmazione e sviluppo : Alexandra Zaïnal
Concezione e sviluppo : Baudouin d'Aumeries
Co-Programmazione e sviluppo : Marc-Olivier Méhu
Supporto tecnico e logistico : Manuel Goepfert
Aiuto per la traduzione : Arnaldo La Scala

Contatto : metmap@orbifly.com




FONTI E CREDITI :

   NOAA       Earth
Advisory